createdAt,value
2018-03-28T00:03:09.474Z,98454.24
2018-03-28T00:09:14.079Z,98456.50
2018-03-28T00:15:18.833Z,98433.82
2018-03-28T00:21:23.619Z,98426.57
2018-03-28T00:27:28.145Z,98424.79
2018-03-28T00:33:32.624Z,98420.30
2018-03-28T00:39:37.287Z,98414.95
2018-03-28T00:45:42.543Z,98413.08
2018-03-28T00:51:48.402Z,98411.27
2018-03-28T00:57:53.019Z,98398.16
2018-03-28T01:03:57.678Z,98378.98
2018-03-28T01:10:02.200Z,98381.00
2018-03-28T01:16:06.767Z,98370.45
2018-03-28T01:22:11.410Z,98351.26
2018-03-28T01:28:16.002Z,98353.41
2018-03-28T01:34:20.598Z,98358.67
2018-03-28T01:40:25.097Z,98370.16
2018-03-28T01:46:29.775Z,98357.55
2018-03-28T01:52:34.259Z,98346.67
2018-03-28T01:58:38.736Z,98343.80
2018-03-28T02:04:44.018Z,98333.68
2018-03-28T02:10:50.276Z,98328.12
2018-03-28T02:16:55.526Z,98328.94
2018-03-28T02:23:00.018Z,98326.97
2018-03-28T02:29:04.561Z,98327.31
2018-03-28T02:35:09.403Z,98327.13
2018-03-28T02:41:14.693Z,98317.98
2018-03-28T02:47:19.424Z,98303.52
2018-03-28T02:53:23.979Z,98308.63
2018-03-28T02:59:28.636Z,98314.27
2018-03-28T03:05:33.177Z,98297.27
2018-03-28T03:11:37.708Z,98305.89
2018-03-28T03:17:42.989Z,98307.90
2018-03-28T03:23:47.849Z,98299.19
2018-03-28T03:29:53.110Z,98301.89
2018-03-28T03:35:57.563Z,98295.17
2018-03-28T03:42:03.065Z,98294.14
2018-03-28T03:48:07.652Z,98289.45
2018-03-28T03:54:12.911Z,98294.89
2018-03-28T04:00:17.425Z,98288.34
2018-03-28T04:06:22.781Z,98288.11
2018-03-28T04:12:27.317Z,98288.63
2018-03-28T04:18:32.055Z,98283.59
2018-03-28T04:24:36.558Z,98273.84
2018-03-28T04:30:41.785Z,98262.20
2018-03-28T04:36:46.722Z,98266.28
2018-03-28T04:42:51.950Z,98266.34
2018-03-28T04:48:56.570Z,98266.38
2018-03-28T04:55:01.032Z,98267.72
2018-03-28T05:01:05.491Z,98262.45
2018-03-28T05:07:10.033Z,98265.36
2018-03-28T05:13:15.517Z,98271.63
2018-03-28T05:19:20.203Z,98255.95
2018-03-28T05:25:24.710Z,98253.27
2018-03-28T05:31:29.934Z,98256.23
2018-03-28T05:37:34.523Z,98249.51
2018-03-28T05:43:39.247Z,98242.81
2018-03-28T05:49:44.845Z,98240.26
2018-03-28T05:55:50.157Z,98246.70
2018-03-28T06:01:54.698Z,98238.12
2018-03-28T06:07:59.313Z,98224.25
2018-03-28T06:14:04.112Z,98221.64
2018-03-28T06:20:08.666Z,98220.75
2018-03-28T06:26:14.159Z,98237.23
2018-03-28T06:32:19.860Z,98237.96
2018-03-28T06:38:24.371Z,98238.08
2018-03-28T06:44:28.884Z,98238.69
2018-03-28T06:50:33.355Z,98237.58
2018-03-28T06:56:37.872Z,98230.19
2018-03-28T07:02:43.170Z,98234.34
2018-03-28T07:08:48.061Z,98223.48
2018-03-28T07:14:52.659Z,98222.22
2018-03-28T07:20:58.137Z,98218.98
2018-03-28T07:27:02.662Z,98228.62
2018-03-28T07:33:07.131Z,98219.06
2018-03-28T07:39:13.177Z,98224.41
2018-03-28T07:45:18.502Z,98216.27
2018-03-28T07:51:23.389Z,98217.02
2018-03-28T07:57:27.959Z,98215.45
2018-03-28T08:03:32.454Z,98223.17
2018-03-28T08:09:37.716Z,98221.34
2018-03-28T08:15:42.273Z,98216.23
2018-03-28T08:21:46.759Z,98220.92
2018-03-28T08:27:51.332Z,98214.11
2018-03-28T08:33:55.880Z,98215.03
2018-03-28T08:40:01.163Z,98225.14
2018-03-28T08:46:05.588Z,98223.80
2018-03-28T08:52:10.142Z,98204.07
2018-03-28T08:58:14.675Z,98206.98
2018-03-28T09:04:19.799Z,98219.61
2018-03-28T09:10:24.380Z,98220.52
2018-03-28T09:16:29.763Z,98217.83
2018-03-28T09:22:34.236Z,98218.95
2018-03-28T09:28:38.815Z,98205.27
2018-03-28T09:34:43.433Z,98202.17
2018-03-28T09:40:49.068Z,98200.09
2018-03-28T09:46:53.683Z,98203.44
2018-03-28T09:52:58.192Z,98206.86
2018-03-28T09:59:02.678Z,98205.86
2018-03-28T10:05:07.265Z,98198.86
2018-03-28T10:11:12.069Z,98195.65
2018-03-28T10:17:17.070Z,98190.67
2018-03-28T10:23:22.401Z,98179.28
2018-03-28T10:29:27.004Z,98166.61
2018-03-28T10:35:31.499Z,98162.12
2018-03-28T10:41:36.064Z,98162.39
2018-03-28T10:47:40.918Z,98160.56
2018-03-28T10:53:45.424Z,98155.53
2018-03-28T10:59:50.080Z,98152.08
2018-03-28T11:05:54.610Z,98146.58
2018-03-28T11:11:59.248Z,98149.94
2018-03-28T11:18:04.742Z,98145.90
2018-03-28T11:24:09.356Z,98144.67
2018-03-28T11:30:14.042Z,98131.27
2018-03-28T11:36:20.563Z,98140.78
2018-03-28T11:42:25.093Z,98134.52
2018-03-28T11:48:29.747Z,98141.92
2018-03-28T11:54:34.309Z,98143.75
2018-03-28T12:00:39.620Z,98130.33
2018-03-28T12:06:44.195Z,98121.18
2018-03-28T12:12:48.680Z,98099.11
2018-03-28T12:18:53.464Z,98099.45
2018-03-28T12:24:58.030Z,98090.55
2018-03-28T12:31:02.529Z,98080.69
2018-03-28T12:37:07.949Z,98063.69
2018-03-28T12:43:12.769Z,98055.05
2018-03-28T12:49:17.297Z,98046.66
2018-03-28T12:55:22.253Z,98046.03
2018-03-28T13:01:26.867Z,98030.86
2018-03-28T13:07:32.372Z,98020.67
2018-03-28T13:13:36.991Z,98011.20
2018-03-28T13:19:41.599Z,97996.84
2018-03-28T13:25:46.819Z,97989.11
2018-03-28T13:31:51.961Z,97981.58
2018-03-28T13:37:57.344Z,97968.50
2018-03-28T13:44:01.877Z,97965.30
2018-03-28T13:50:06.382Z,97960.91
2018-03-28T13:56:10.905Z,97951.52
2018-03-28T14:02:15.477Z,97942.13
2018-03-28T14:08:20.153Z,97933.86
2018-03-28T14:14:24.644Z,97926.08
2018-03-28T14:20:29.165Z,97910.19
2018-03-28T14:26:34.491Z,97904.55
2018-03-28T14:32:39.760Z,97887.86
2018-03-28T14:38:44.322Z,97871.40
2018-03-28T14:44:49.283Z,97865.45
2018-03-28T14:50:53.811Z,97850.16
2018-03-28T14:56:58.297Z,97838.81
2018-03-28T15:03:02.798Z,97825.56
2018-03-28T15:09:08.164Z,97805.73
2018-03-28T15:15:14.355Z,97793.94
2018-03-28T15:21:20.163Z,97769.78
2018-03-28T15:27:24.669Z,97770.39
2018-03-28T15:33:29.406Z,97752.35
2018-03-28T15:39:34.726Z,97750.14
2018-03-28T15:45:39.266Z,97745.47
2018-03-28T15:51:43.959Z,97730.42
2018-03-28T15:57:49.942Z,97721.16
2018-03-28T16:03:54.652Z,97709.05
2018-03-28T16:09:59.287Z,97686.77
2018-03-28T16:16:04.890Z,97677.40
2018-03-28T16:22:09.714Z,97665.48
2018-03-28T16:28:14.206Z,97652.57
2018-03-28T16:34:19.432Z,97646.66
2018-03-28T16:40:23.935Z,97631.98
2018-03-28T16:46:28.436Z,97623.02
2018-03-28T16:52:33.708Z,97605.89
2018-03-28T16:58:38.218Z,97604.38
2018-03-28T17:04:42.727Z,97602.44
2018-03-28T17:10:47.853Z,97615.07
2018-03-28T17:16:53.305Z,97607.34
2018-03-28T17:22:58.129Z,97590.17
2018-03-28T17:29:03.510Z,97584.02
2018-03-28T17:35:08.023Z,97586.13
2018-03-28T17:41:13.795Z,97575.01
2018-03-28T17:47:18.782Z,97580.36
2018-03-28T17:53:23.279Z,97579.33
2018-03-28T17:59:27.789Z,97584.38
2018-03-28T18:05:33.074Z,97589.38
2018-03-28T18:11:37.556Z,97583.33
2018-03-28T18:17:42.829Z,97566.72
2018-03-28T18:23:47.842Z,97572.98
2018-03-28T18:29:52.517Z,97564.54
2018-03-28T18:35:56.994Z,97543.86
2018-03-28T18:42:01.654Z,97535.73
2018-03-28T18:48:06.361Z,97515.39
2018-03-28T18:54:10.827Z,97499.75
2018-03-28T19:00:15.313Z,97472.48
2018-03-28T19:06:19.998Z,97453.41
2018-03-28T19:12:24.518Z,97440.79
2018-03-28T19:18:29.038Z,97414.38
2018-03-28T19:24:33.526Z,97434.61
2018-03-28T19:30:38.017Z,97435.73
2018-03-28T19:36:42.571Z,97424.94
2018-03-28T19:42:47.576Z,97416.49
2018-03-28T19:48:52.196Z,97406.82
2018-03-28T19:54:57.537Z,97399.19
2018-03-28T20:01:02.408Z,97380.10
2018-03-28T20:07:06.900Z,97389.52
2018-03-28T20:13:11.443Z,97382.67
2018-03-28T20:19:15.929Z,97372.00
2018-03-28T20:25:20.909Z,97360.56
2018-03-28T20:31:25.449Z,97360.45
2018-03-28T20:37:31.661Z,97348.66
2018-03-28T20:43:36.329Z,97347.08
2018-03-28T20:49:40.881Z,97336.45
2018-03-28T20:55:45.378Z,97336.70
2018-03-28T21:01:51.471Z,97339.66
2018-03-28T21:07:56.051Z,97335.00
2018-03-28T21:14:00.674Z,97327.98
2018-03-28T21:20:05.220Z,97339.84
2018-03-28T21:26:10.515Z,97338.27
2018-03-28T21:32:15.071Z,97339.73
2018-03-28T21:51:24.560Z,97315.63
2018-03-28T21:57:29.324Z,97329.62
2018-03-28T22:03:33.900Z,97335.59
2018-03-28T22:09:38.410Z,97355.47
2018-03-28T22:15:43.142Z,97375.84
2018-03-28T22:21:49.164Z,97405.84
2018-03-28T22:27:53.888Z,97424.91
2018-03-28T22:33:58.388Z,97443.03
2018-03-28T22:40:03.782Z,97458.89
2018-03-28T22:46:09.236Z,97473.89
2018-03-28T22:52:13.870Z,97478.80
2018-03-28T22:58:18.757Z,97500.09
2018-03-28T23:04:23.533Z,97502.84
2018-03-28T23:10:28.013Z,97520.34
2018-03-28T23:16:33.311Z,97531.62
2018-03-28T23:22:39.314Z,97550.56
2018-03-28T23:28:44.396Z,97577.59
2018-03-28T23:34:50.783Z,97591.23
2018-03-28T23:40:55.524Z,97614.44
2018-03-28T23:47:00.820Z,97621.77
2018-03-28T23:53:06.389Z,97641.02
2018-03-28T23:59:10.958Z,97658.17
